sensor_id;sensor_type;location;lat;lon;timestamp;P1;durP1;ratioP1;P2;durP2;ratioP2
611;SDS011;293;53.888;11.464;2023-02-24T00:00:58;7.25;;;1.90;;
611;SDS011;293;53.888;11.464;2023-02-24T00:03:34;15.27;;;2.42;;
611;SDS011;293;53.888;11.464;2023-02-24T00:06:02;4.18;;;1.52;;
611;SDS011;293;53.888;11.464;2023-02-24T00:08:36;6.78;;;2.47;;
611;SDS011;293;53.888;11.464;2023-02-24T00:11:07;9.68;;;2.70;;
611;SDS011;293;53.888;11.464;2023-02-24T00:13:35;10.18;;;2.10;;
611;SDS011;293;53.888;11.464;2023-02-24T00:16:02;9.05;;;2.08;;
611;SDS011;293;53.888;11.464;2023-02-24T00:18:30;5.97;;;1.70;;
611;SDS011;293;53.888;11.464;2023-02-24T00:21:02;4.40;;;1.15;;
611;SDS011;293;53.888;11.464;2023-02-24T00:23:34;13.48;;;2.10;;
611;SDS011;293;53.888;11.464;2023-02-24T00:26:02;8.73;;;1.40;;
611;SDS011;293;53.888;11.464;2023-02-24T00:28:30;7.07;;;2.05;;
611;SDS011;293;53.888;11.464;2023-02-24T00:31:01;7.80;;;1.58;;
611;SDS011;293;53.888;11.464;2023-02-24T00:33:29;7.18;;;1.90;;
611;SDS011;293;53.888;11.464;2023-02-24T00:36:04;6.93;;;1.88;;
611;SDS011;293;53.888;11.464;2023-02-24T00:38:33;5.25;;;1.60;;
611;SDS011;293;53.888;11.464;2023-02-24T00:41:01;13.82;;;2.47;;
611;SDS011;293;53.888;11.464;2023-02-24T00:43:36;4.05;;;1.30;;
611;SDS011;293;53.888;11.464;2023-02-24T00:46:03;4.15;;;1.95;;
611;SDS011;293;53.888;11.464;2023-02-24T00:48:35;10.18;;;1.95;;
611;SDS011;293;53.888;11.464;2023-02-24T00:51:06;8.40;;;1.77;;
611;SDS011;293;53.888;11.464;2023-02-24T00:53:34;8.43;;;1.90;;
611;SDS011;293;53.888;11.464;2023-02-24T00:56:03;13.30;;;3.90;;
611;SDS011;293;53.888;11.464;2023-02-24T00:58:32;10.40;;;1.92;;
611;SDS011;293;53.888;11.464;2023-02-24T01:01:00;5.70;;;1.48;;
611;SDS011;293;53.888;11.464;2023-02-24T01:03:29;8.48;;;2.08;;
611;SDS011;293;53.888;11.464;2023-02-24T01:05:59;6.75;;;2.08;;
611;SDS011;293;53.888;11.464;2023-02-24T01:08:29;3.95;;;1.50;;
611;SDS011;293;53.888;11.464;2023-02-24T01:11:00;10.85;;;2.45;;
611;SDS011;293;53.888;11.464;2023-02-24T01:13:54;7.72;;;1.45;;
611;SDS011;293;53.888;11.464;2023-02-24T01:16:21;8.40;;;2.25;;
611;SDS011;293;53.888;11.464;2023-02-24T01:18:48;5.95;;;1.65;;
611;SDS011;293;53.888;11.464;2023-02-24T01:21:16;6.32;;;2.40;;
611;SDS011;293;53.888;11.464;2023-02-24T01:23:47;6.03;;;1.52;;
611;SDS011;293;53.888;11.464;2023-02-24T01:26:15;4.70;;;2.55;;
611;SDS011;293;53.888;11.464;2023-02-24T01:28:42;4.22;;;1.92;;
611;SDS011;293;53.888;11.464;2023-02-24T01:31:12;5.70;;;2.22;;
611;SDS011;293;53.888;11.464;2023-02-24T01:33:41;5.07;;;1.60;;
611;SDS011;293;53.888;11.464;2023-02-24T01:36:10;8.80;;;1.80;;
611;SDS011;293;53.888;11.464;2023-02-24T01:38:39;3.20;;;1.45;;
611;SDS011;293;53.888;11.464;2023-02-24T01:41:08;7.45;;;2.20;;
611;SDS011;293;53.888;11.464;2023-02-24T01:43:53;8.90;;;2.13;;
611;SDS011;293;53.888;11.464;2023-02-24T01:46:23;9.27;;;1.83;;
611;SDS011;293;53.888;11.464;2023-02-24T01:48:50;10.23;;;1.73;;
611;SDS011;293;53.888;11.464;2023-02-24T01:51:20;8.50;;;1.80;;
611;SDS011;293;53.888;11.464;2023-02-24T01:53:47;10.60;;;1.75;;
611;SDS011;293;53.888;11.464;2023-02-24T01:56:15;8.73;;;2.28;;
611;SDS011;293;53.888;11.464;2023-02-24T01:58:42;6.85;;;2.38;;
611;SDS011;293;53.888;11.464;2023-02-24T02:01:09;6.63;;;1.80;;
611;SDS011;293;53.888;11.464;2023-02-24T02:03:39;5.95;;;1.92;;
611;SDS011;293;53.888;11.464;2023-02-24T02:06:07;5.05;;;1.75;;
611;SDS011;293;53.888;11.464;2023-02-24T02:08:37;9.98;;;1.23;;
611;SDS011;293;53.888;11.464;2023-02-24T02:11:06;5.85;;;1.20;;
611;SDS011;293;53.888;11.464;2023-02-24T02:13:37;9.43;;;1.95;;
611;SDS011;293;53.888;11.464;2023-02-24T02:16:11;3.85;;;1.25;;
611;SDS011;293;53.888;11.464;2023-02-24T02:19:15;8.40;;;1.20;;
611;SDS011;293;53.888;11.464;2023-02-24T02:22:05;4.43;;;1.20;;
611;SDS011;293;53.888;11.464;2023-02-24T02:24:47;10.23;;;1.98;;
611;SDS011;293;53.888;11.464;2023-02-24T02:27:35;5.65;;;1.13;;
611;SDS011;293;53.888;11.464;2023-02-24T02:36:33;3.95;;;1.20;;
611;SDS011;293;53.888;11.464;2023-02-24T02:39:09;14.75;;;1.90;;
611;SDS011;293;53.888;11.464;2023-02-24T02:41:43;5.32;;;0.95;;
611;SDS011;293;53.888;11.464;2023-02-24T02:44:18;10.63;;;1.73;;
611;SDS011;293;53.888;11.464;2023-02-24T02:46:50;5.97;;;0.90;;
611;SDS011;293;53.888;11.464;2023-02-24T02:49:24;5.00;;;1.15;;
611;SDS011;293;53.888;11.464;2023-02-24T02:51:59;3.35;;;1.00;;
611;SDS011;293;53.888;11.464;2023-02-24T02:54:33;8.13;;;2.05;;
611;SDS011;293;53.888;11.464;2023-02-24T02:57:10;6.82;;;1.55;;
611;SDS011;293;53.888;11.464;2023-02-24T02:59:41;3.47;;;1.00;;
611;SDS011;293;53.888;11.464;2023-02-24T03:02:14;7.72;;;2.10;;
611;SDS011;293;53.888;11.464;2023-02-24T03:04:44;2.78;;;0.90;;
611;SDS011;293;53.888;11.464;2023-02-24T03:07:17;2.25;;;1.08;;
611;SDS011;293;53.888;11.464;2023-02-24T03:09:48;11.43;;;2.03;;
611;SDS011;293;53.888;11.464;2023-02-24T03:12:20;5.18;;;1.15;;
611;SDS011;293;53.888;11.464;2023-02-24T03:14:51;2.63;;;0.98;;
611;SDS011;293;53.888;11.464;2023-02-24T03:17:23;3.20;;;1.35;;
611;SDS011;293;53.888;11.464;2023-02-24T03:19:56;4.70;;;1.10;;
611;SDS011;293;53.888;11.464;2023-02-24T03:22:29;2.78;;;0.80;;
611;SDS011;293;53.888;11.464;2023-02-24T03:25:00;4.47;;;1.85;;
611;SDS011;293;53.888;11.464;2023-02-24T03:27:29;4.15;;;1.10;;
611;SDS011;293;53.888;11.464;2023-02-24T03:30:04;5.82;;;1.10;;
611;SDS011;293;53.888;11.464;2023-02-24T03:32:36;7.25;;;0.88;;
611;SDS011;293;53.888;11.464;2023-02-24T03:35:09;2.25;;;0.80;;
611;SDS011;293;53.888;11.464;2023-02-24T03:37:40;3.97;;;0.80;;
611;SDS011;293;53.888;11.464;2023-02-24T03:40:08;12.43;;;1.80;;
611;SDS011;293;53.888;11.464;2023-02-24T03:42:39;3.92;;;1.60;;
611;SDS011;293;53.888;11.464;2023-02-24T03:45:10;1.15;;;0.85;;
611;SDS011;293;53.888;11.464;2023-02-24T03:47:37;6.18;;;1.35;;
611;SDS011;293;53.888;11.464;2023-02-24T03:50:09;1.98;;;0.75;;
611;SDS011;293;53.888;11.464;2023-02-24T03:52:39;2.65;;;1.02;;
611;SDS011;293;53.888;11.464;2023-02-24T03:55:15;6.63;;;1.10;;
611;SDS011;293;53.888;11.464;2023-02-24T03:57:54;4.00;;;1.00;;
611;SDS011;293;53.888;11.464;2023-02-24T04:00:33;2.40;;;0.80;;
611;SDS011;293;53.888;11.464;2023-02-24T04:03:17;4.55;;;0.90;;
611;SDS011;293;53.888;11.464;2023-02-24T04:05:51;8.15;;;1.10;;
611;SDS011;293;53.888;11.464;2023-02-24T04:08:28;2.42;;;1.02;;
611;SDS011;293;53.888;11.464;2023-02-24T04:11:03;5.38;;;1.02;;
611;SDS011;293;53.888;11.464;2023-02-24T04:13:37;2.47;;;0.90;;
611;SDS011;293;53.888;11.464;2023-02-24T04:16:11;8.93;;;1.30;;
611;SDS011;293;53.888;11.464;2023-02-24T04:18:43;5.55;;;0.90;;
611;SDS011;293;53.888;11.464;2023-02-24T04:21:13;7.75;;;1.75;;
611;SDS011;293;53.888;11.464;2023-02-24T04:23:43;4.97;;;1.15;;
611;SDS011;293;53.888;11.464;2023-02-24T04:26:12;1.80;;;0.90;;
611;SDS011;293;53.888;11.464;2023-02-24T04:28:43;27.52;;;4.03;;
611;SDS011;293;53.888;11.464;2023-02-24T04:31:12;5.70;;;1.10;;
611;SDS011;293;53.888;11.464;2023-02-24T04:33:42;3.17;;;1.20;;
611;SDS011;293;53.888;11.464;2023-02-24T04:36:14;4.70;;;1.38;;
611;SDS011;293;53.888;11.464;2023-02-24T04:38:41;7.90;;;1.77;;
611;SDS011;293;53.888;11.464;2023-02-24T04:41:11;3.67;;;1.17;;
611;SDS011;293;53.888;11.464;2023-02-24T04:43:44;7.78;;;1.30;;
611;SDS011;293;53.888;11.464;2023-02-24T04:46:12;7.18;;;2.28;;
611;SDS011;293;53.888;11.464;2023-02-24T04:48:39;6.68;;;1.17;;
611;SDS011;293;53.888;11.464;2023-02-24T04:51:06;5.22;;;1.02;;
611;SDS011;293;53.888;11.464;2023-02-24T04:53:33;9.88;;;1.40;;
611;SDS011;293;53.888;11.464;2023-02-24T04:56:02;3.13;;;0.77;;
611;SDS011;293;53.888;11.464;2023-02-24T04:58:34;3.63;;;1.10;;
611;SDS011;293;53.888;11.464;2023-02-24T05:01:05;8.05;;;1.48;;
611;SDS011;293;53.888;11.464;2023-02-24T05:03:35;4.05;;;1.23;;
611;SDS011;293;53.888;11.464;2023-02-24T05:06:06;2.30;;;0.93;;
611;SDS011;293;53.888;11.464;2023-02-24T05:08:38;3.42;;;1.25;;
611;SDS011;293;53.888;11.464;2023-02-24T05:11:05;7.43;;;1.88;;
611;SDS011;293;53.888;11.464;2023-02-24T05:13:33;10.00;;;1.55;;
611;SDS011;293;53.888;11.464;2023-02-24T05:16:02;5.05;;;2.30;;
611;SDS011;293;53.888;11.464;2023-02-24T05:18:31;4.70;;;1.17;;
611;SDS011;293;53.888;11.464;2023-02-24T05:21:03;4.32;;;1.98;;
611;SDS011;293;53.888;11.464;2023-02-24T05:23:50;2.58;;;1.42;;
611;SDS011;293;53.888;11.464;2023-02-24T05:26:19;4.90;;;0.93;;
611;SDS011;293;53.888;11.464;2023-02-24T05:28:50;5.05;;;1.70;;
611;SDS011;293;53.888;11.464;2023-02-24T05:31:19;3.85;;;1.50;;
611;SDS011;293;53.888;11.464;2023-02-24T05:33:51;4.18;;;1.52;;
611;SDS011;293;53.888;11.464;2023-02-24T05:36:20;4.35;;;1.90;;
611;SDS011;293;53.888;11.464;2023-02-24T05:38:48;3.65;;;1.73;;
611;SDS011;293;53.888;11.464;2023-02-24T05:41:19;4.30;;;2.55;;
611;SDS011;293;53.888;11.464;2023-02-24T05:43:48;3.55;;;1.20;;
611;SDS011;293;53.888;11.464;2023-02-24T05:46:19;4.97;;;1.70;;
611;SDS011;293;53.888;11.464;2023-02-24T05:48:52;8.50;;;1.90;;
611;SDS011;293;53.888;11.464;2023-02-24T05:51:21;11.55;;;7.22;;
611;SDS011;293;53.888;11.464;2023-02-24T05:53:48;10.45;;;5.20;;
611;SDS011;293;53.888;11.464;2023-02-24T05:56:19;5.18;;;2.35;;
611;SDS011;293;53.888;11.464;2023-02-24T05:58:47;4.72;;;1.42;;
611;SDS011;293;53.888;11.464;2023-02-24T06:01:15;3.50;;;1.27;;
611;SDS011;293;53.888;11.464;2023-02-24T06:03:43;4.78;;;2.33;;
611;SDS011;293;53.888;11.464;2023-02-24T06:06:12;4.15;;;1.35;;
611;SDS011;293;53.888;11.464;2023-02-24T06:08:40;3.85;;;1.02;;
611;SDS011;293;53.888;11.464;2023-02-24T06:11:14;1.75;;;1.48;;
611;SDS011;293;53.888;11.464;2023-02-24T06:13:42;6.40;;;1.75;;
611;SDS011;293;53.888;11.464;2023-02-24T06:16:12;7.78;;;1.65;;
611;SDS011;293;53.888;11.464;2023-02-24T06:18:41;7.45;;;1.58;;
611;SDS011;293;53.888;11.464;2023-02-24T06:21:08;4.95;;;1.88;;
611;SDS011;293;53.888;11.464;2023-02-24T06:23:37;4.05;;;1.50;;
611;SDS011;293;53.888;11.464;2023-02-24T06:26:04;5.07;;;1.00;;
611;SDS011;293;53.888;11.464;2023-02-24T06:28:37;3.70;;;1.13;;
611;SDS011;293;53.888;11.464;2023-02-24T06:31:07;2.47;;;0.80;;
611;SDS011;293;53.888;11.464;2023-02-24T06:33:35;4.90;;;1.73;;
611;SDS011;293;53.888;11.464;2023-02-24T06:36:04;5.25;;;1.15;;
611;SDS011;293;53.888;11.464;2023-02-24T06:38:33;4.22;;;1.02;;
611;SDS011;293;53.888;11.464;2023-02-24T06:41:02;2.75;;;1.25;;
611;SDS011;293;53.888;11.464;2023-02-24T06:43:35;6.78;;;1.50;;
611;SDS011;293;53.888;11.464;2023-02-24T06:46:03;2.40;;;0.98;;
611;SDS011;293;53.888;11.464;2023-02-24T06:48:31;3.53;;;1.60;;
611;SDS011;293;53.888;11.464;2023-02-24T06:51:01;1.77;;;0.95;;
611;SDS011;293;53.888;11.464;2023-02-24T06:53:31;8.48;;;1.60;;
611;SDS011;293;53.888;11.464;2023-02-24T06:56:03;3.88;;;1.55;;
611;SDS011;293;53.888;11.464;2023-02-24T06:58:38;5.13;;;1.15;;
611;SDS011;293;53.888;11.464;2023-02-24T07:01:08;2.75;;;1.38;;
611;SDS011;293;53.888;11.464;2023-02-24T07:03:36;2.40;;;1.30;;
611;SDS011;293;53.888;11.464;2023-02-24T07:06:11;3.70;;;1.63;;
611;SDS011;293;53.888;11.464;2023-02-24T07:08:50;6.00;;;3.75;;
611;SDS011;293;53.888;11.464;2023-02-24T07:11:18;7.78;;;3.70;;
611;SDS011;293;53.888;11.464;2023-02-24T07:13:46;2.75;;;1.38;;
611;SDS011;293;53.888;11.464;2023-02-24T07:16:13;4.95;;;2.08;;
611;SDS011;293;53.888;11.464;2023-02-24T07:18:41;6.05;;;2.50;;
611;SDS011;293;53.888;11.464;2023-02-24T07:21:13;5.63;;;1.92;;
611;SDS011;293;53.888;11.464;2023-02-24T07:23:47;2.45;;;1.83;;
611;SDS011;293;53.888;11.464;2023-02-24T07:26:21;7.68;;;3.20;;
611;SDS011;293;53.888;11.464;2023-02-24T07:28:50;3.97;;;1.83;;
611;SDS011;293;53.888;11.464;2023-02-24T07:31:19;6.97;;;2.20;;
611;SDS011;293;53.888;11.464;2023-02-24T07:33:48;2.92;;;2.20;;
611;SDS011;293;53.888;11.464;2023-02-24T07:36:19;5.20;;;2.60;;
611;SDS011;293;53.888;11.464;2023-02-24T07:38:50;4.45;;;1.58;;
611;SDS011;293;53.888;11.464;2023-02-24T07:41:19;11.23;;;2.83;;
611;SDS011;293;53.888;11.464;2023-02-24T07:43:47;9.48;;;2.45;;
611;SDS011;293;53.888;11.464;2023-02-24T07:46:16;7.43;;;3.15;;
611;SDS011;293;53.888;11.464;2023-02-24T07:48:44;5.63;;;1.85;;
611;SDS011;293;53.888;11.464;2023-02-24T07:51:12;7.82;;;2.17;;
611;SDS011;293;53.888;11.464;2023-02-24T07:53:41;4.65;;;2.35;;
611;SDS011;293;53.888;11.464;2023-02-24T07:56:11;3.60;;;2.17;;
611;SDS011;293;53.888;11.464;2023-02-24T07:58:41;3.47;;;2.42;;
611;SDS011;293;53.888;11.464;2023-02-24T08:01:09;3.58;;;2.45;;
611;SDS011;293;53.888;11.464;2023-02-24T08:03:46;9.65;;;3.40;;
611;SDS011;293;53.888;11.464;2023-02-24T08:06:14;7.90;;;3.58;;
611;SDS011;293;53.888;11.464;2023-02-24T08:08:50;12.02;;;7.70;;
611;SDS011;293;53.888;11.464;2023-02-24T08:11:42;37.10;;;24.02;;
611;SDS011;293;53.888;11.464;2023-02-24T08:14:11;19.80;;;8.55;;
611;SDS011;293;53.888;11.464;2023-02-24T08:16:39;13.65;;;6.95;;
611;SDS011;293;53.888;11.464;2023-02-24T08:19:07;7.10;;;4.30;;
611;SDS011;293;53.888;11.464;2023-02-24T08:21:37;8.05;;;4.22;;
611;SDS011;293;53.888;11.464;2023-02-24T08:24:06;6.65;;;4.63;;
611;SDS011;293;53.888;11.464;2023-02-24T08:26:43;8.02;;;3.90;;
611;SDS011;293;53.888;11.464;2023-02-24T08:29:12;6.68;;;3.42;;
611;SDS011;293;53.888;11.464;2023-02-24T08:31:44;7.18;;;3.42;;
611;SDS011;293;53.888;11.464;2023-02-24T08:34:14;6.85;;;4.05;;
611;SDS011;293;53.888;11.464;2023-02-24T08:36:41;8.45;;;3.70;;
611;SDS011;293;53.888;11.464;2023-02-24T08:39:12;6.28;;;3.78;;
611;SDS011;293;53.888;11.464;2023-02-24T08:41:40;6.65;;;4.13;;
611;SDS011;293;53.888;11.464;2023-02-24T08:44:16;7.13;;;4.45;;
611;SDS011;293;53.888;11.464;2023-02-24T08:46:44;8.48;;;4.05;;
611;SDS011;293;53.888;11.464;2023-02-24T08:49:14;5.25;;;3.88;;
611;SDS011;293;53.888;11.464;2023-02-24T08:51:42;7.60;;;3.53;;
611;SDS011;293;53.888;11.464;2023-02-24T08:54:11;4.75;;;4.07;;
611;SDS011;293;53.888;11.464;2023-02-24T08:56:40;3.83;;;3.22;;
611;SDS011;293;53.888;11.464;2023-02-24T08:59:13;4.55;;;3.80;;
611;SDS011;293;53.888;11.464;2023-02-24T09:02:02;4.82;;;3.55;;
611;SDS011;293;53.888;11.464;2023-02-24T09:04:43;4.70;;;4.30;;
611;SDS011;293;53.888;11.464;2023-02-24T09:07:14;7.97;;;4.57;;
611;SDS011;293;53.888;11.464;2023-02-24T09:09:43;4.50;;;3.47;;
611;SDS011;293;53.888;11.464;2023-02-24T09:12:12;6.70;;;4.70;;
611;SDS011;293;53.888;11.464;2023-02-24T09:14:48;8.77;;;5.00;;
611;SDS011;293;53.888;11.464;2023-02-24T09:17:19;4.05;;;3.65;;
611;SDS011;293;53.888;11.464;2023-02-24T09:20:04;4.88;;;4.38;;
611;SDS011;293;53.888;11.464;2023-02-24T09:23:10;4.18;;;3.00;;
611;SDS011;293;53.888;11.464;2023-02-24T09:25:44;6.90;;;3.33;;
611;SDS011;293;53.888;11.464;2023-02-24T09:28:15;6.57;;;3.50;;
611;SDS011;293;53.888;11.464;2023-02-24T09:30:44;4.00;;;3.67;;
611;SDS011;293;53.888;11.464;2023-02-24T09:33:19;6.25;;;3.35;;
611;SDS011;293;53.888;11.464;2023-02-24T09:35:53;6.00;;;3.28;;
611;SDS011;293;53.888;11.464;2023-02-24T09:38:37;4.85;;;3.38;;
611;SDS011;293;53.888;11.464;2023-02-24T09:41:23;3.25;;;2.95;;
611;SDS011;293;53.888;11.464;2023-02-24T09:43:58;4.70;;;2.75;;
611;SDS011;293;53.888;11.464;2023-02-24T09:46:29;10.55;;;7.95;;
611;SDS011;293;53.888;11.464;2023-02-24T09:49:00;9.60;;;6.80;;
611;SDS011;293;53.888;11.464;2023-02-24T09:51:30;8.18;;;4.25;;
611;SDS011;293;53.888;11.464;2023-02-24T09:54:07;4.22;;;3.40;;
611;SDS011;293;53.888;11.464;2023-02-24T09:56:40;3.50;;;2.60;;
611;SDS011;293;53.888;11.464;2023-02-24T09:59:17;4.70;;;4.00;;
611;SDS011;293;53.888;11.464;2023-02-24T10:01:51;2.88;;;2.67;;
611;SDS011;293;53.888;11.464;2023-02-24T10:04:33;3.10;;;2.80;;
611;SDS011;293;53.888;11.464;2023-02-24T10:07:19;4.20;;;3.80;;
611;SDS011;293;53.888;11.464;2023-02-24T10:09:51;3.75;;;3.15;;
611;SDS011;293;53.888;11.464;2023-02-24T10:12:43;3.88;;;2.40;;
611;SDS011;293;53.888;11.464;2023-02-24T10:15:17;3.58;;;2.58;;
611;SDS011;293;53.888;11.464;2023-02-24T10:18:17;3.40;;;3.10;;
611;SDS011;293;53.888;11.464;2023-02-24T10:20:52;4.13;;;3.72;;
611;SDS011;293;53.888;11.464;2023-02-24T10:23:24;3.53;;;3.22;;
611;SDS011;293;53.888;11.464;2023-02-24T10:25:59;4.25;;;3.35;;
611;SDS011;293;53.888;11.464;2023-02-24T10:28:31;2.63;;;2.42;;
611;SDS011;293;53.888;11.464;2023-02-24T10:31:09;4.00;;;3.53;;
611;SDS011;293;53.888;11.464;2023-02-24T10:33:49;4.30;;;2.88;;
611;SDS011;293;53.888;11.464;2023-02-24T10:36:20;6.38;;;3.38;;
611;SDS011;293;53.888;11.464;2023-02-24T10:38:54;8.13;;;3.50;;
611;SDS011;293;53.888;11.464;2023-02-24T10:41:25;5.28;;;3.85;;
611;SDS011;293;53.888;11.464;2023-02-24T10:43:53;12.30;;;9.60;;
611;SDS011;293;53.888;11.464;2023-02-24T10:46:23;17.10;;;10.18;;
611;SDS011;293;53.888;11.464;2023-02-24T10:48:57;5.35;;;4.40;;
611;SDS011;293;53.888;11.464;2023-02-24T10:51:30;4.95;;;4.40;;
611;SDS011;293;53.888;11.464;2023-02-24T10:54:03;4.40;;;4.00;;
611;SDS011;293;53.888;11.464;2023-02-24T10:56:55;3.55;;;3.20;;
611;SDS011;293;53.888;11.464;2023-02-24T10:59:41;3.38;;;3.08;;
611;SDS011;293;53.888;11.464;2023-02-24T11:02:25;4.18;;;3.55;;
611;SDS011;293;53.888;11.464;2023-02-24T11:04:57;3.75;;;3.45;;
611;SDS011;293;53.888;11.464;2023-02-24T11:07:47;3.78;;;3.35;;
611;SDS011;293;53.888;11.464;2023-02-24T11:10:20;4.10;;;3.00;;
611;SDS011;293;53.888;11.464;2023-02-24T11:12:56;5.10;;;3.53;;
611;SDS011;293;53.888;11.464;2023-02-24T11:15:43;3.42;;;3.13;;
611;SDS011;293;53.888;11.464;2023-02-24T11:18:34;4.10;;;3.50;;
611;SDS011;293;53.888;11.464;2023-02-24T11:21:03;3.38;;;3.08;;
611;SDS011;293;53.888;11.464;2023-02-24T11:23:33;4.13;;;3.47;;
611;SDS011;293;53.888;11.464;2023-02-24T11:26:05;4.63;;;4.13;;
611;SDS011;293;53.888;11.464;2023-02-24T11:28:45;4.80;;;4.13;;
611;SDS011;293;53.888;11.464;2023-02-24T11:31:31;4.45;;;3.63;;
611;SDS011;293;53.888;11.464;2023-02-24T11:34:08;3.53;;;2.95;;
611;SDS011;293;53.888;11.464;2023-02-24T11:36:44;4.47;;;3.92;;
611;SDS011;293;53.888;11.464;2023-02-24T11:39:36;3.40;;;3.10;;
611;SDS011;293;53.888;11.464;2023-02-24T11:42:12;3.30;;;3.00;;
611;SDS011;293;53.888;11.464;2023-02-24T11:44:45;4.15;;;3.72;;
611;SDS011;293;53.888;11.464;2023-02-24T11:47:19;3.60;;;3.33;;
611;SDS011;293;53.888;11.464;2023-02-24T11:49:54;4.40;;;3.92;;
611;SDS011;293;53.888;11.464;2023-02-24T11:52:33;4.68;;;3.70;;
611;SDS011;293;53.888;11.464;2023-02-24T11:55:04;3.97;;;3.60;;
611;SDS011;293;53.888;11.464;2023-02-24T11:57:40;6.00;;;4.47;;
611;SDS011;293;53.888;11.464;2023-02-24T12:00:15;11.70;;;9.13;;
611;SDS011;293;53.888;11.464;2023-02-24T12:02:46;30.10;;;21.83;;
611;SDS011;293;53.888;11.464;2023-02-24T12:05:18;13.07;;;6.78;;
611;SDS011;293;53.888;11.464;2023-02-24T12:07:49;6.53;;;5.75;;
611;SDS011;293;53.888;11.464;2023-02-24T12:10:19;6.68;;;4.93;;
611;SDS011;293;53.888;11.464;2023-02-24T12:12:50;6.05;;;4.65;;
611;SDS011;293;53.888;11.464;2023-02-24T12:15:27;9.10;;;4.90;;
611;SDS011;293;53.888;11.464;2023-02-24T12:17:59;5.47;;;4.97;;
611;SDS011;293;53.888;11.464;2023-02-24T12:20:33;5.53;;;5.03;;
611;SDS011;293;53.888;11.464;2023-02-24T12:23:08;7.03;;;5.60;;
611;SDS011;293;53.888;11.464;2023-02-24T12:25:45;5.70;;;5.20;;
611;SDS011;293;53.888;11.464;2023-02-24T12:28:25;5.75;;;4.88;;
611;SDS011;293;53.888;11.464;2023-02-24T12:30:59;6.43;;;5.82;;
611;SDS011;293;53.888;11.464;2023-02-24T12:33:40;5.30;;;4.80;;
611;SDS011;293;53.888;11.464;2023-02-24T12:36:16;5.90;;;5.40;;
611;SDS011;293;53.888;11.464;2023-02-24T12:38:55;6.38;;;4.97;;
611;SDS011;293;53.888;11.464;2023-02-24T12:41:32;8.33;;;5.10;;
611;SDS011;293;53.888;11.464;2023-02-24T12:44:23;7.07;;;6.37;;
611;SDS011;293;53.888;11.464;2023-02-24T12:47:00;6.00;;;5.40;;
611;SDS011;293;53.888;11.464;2023-02-24T12:49:41;6.38;;;5.78;;
611;SDS011;293;53.888;11.464;2023-02-24T12:52:26;7.13;;;6.38;;
611;SDS011;293;53.888;11.464;2023-02-24T12:55:00;7.20;;;6.13;;
611;SDS011;293;53.888;11.464;2023-02-24T12:57:35;8.93;;;6.20;;
611;SDS011;293;53.888;11.464;2023-02-24T13:00:10;9.55;;;6.00;;
611;SDS011;293;53.888;11.464;2023-02-24T13:02:45;13.20;;;7.70;;
611;SDS011;293;53.888;11.464;2023-02-24T13:05:18;8.43;;;6.53;;
611;SDS011;293;53.888;11.464;2023-02-24T13:07:55;9.50;;;6.40;;
611;SDS011;293;53.888;11.464;2023-02-24T13:10:36;7.43;;;6.53;;
611;SDS011;293;53.888;11.464;2023-02-24T13:13:11;7.40;;;6.67;;
611;SDS011;293;53.888;11.464;2023-02-24T13:15:48;9.17;;;6.70;;
611;SDS011;293;53.888;11.464;2023-02-24T13:18:22;13.20;;;7.60;;
611;SDS011;293;53.888;11.464;2023-02-24T13:20:59;10.70;;;6.90;;
611;SDS011;293;53.888;11.464;2023-02-24T13:23:30;9.30;;;6.90;;
611;SDS011;293;53.888;11.464;2023-02-24T13:25:57;9.77;;;7.23;;
611;SDS011;293;53.888;11.464;2023-02-24T13:28:25;24.17;;;20.53;;
611;SDS011;293;53.888;11.464;2023-02-24T13:30:58;8.60;;;6.43;;
611;SDS011;293;53.888;11.464;2023-02-24T13:33:28;34.13;;;21.80;;
611;SDS011;293;53.888;11.464;2023-02-24T13:36:05;12.37;;;9.20;;
611;SDS011;293;53.888;11.464;2023-02-24T13:38:39;12.10;;;9.30;;
611;SDS011;293;53.888;11.464;2023-02-24T13:41:19;7.60;;;6.87;;
611;SDS011;293;53.888;11.464;2023-02-24T13:44:01;8.53;;;6.37;;
611;SDS011;293;53.888;11.464;2023-02-24T13:46:47;10.13;;;7.93;;
611;SDS011;293;53.888;11.464;2023-02-24T13:49:23;11.77;;;8.83;;
611;SDS011;293;53.888;11.464;2023-02-24T13:52:00;8.40;;;6.93;;
611;SDS011;293;53.888;11.464;2023-02-24T13:54:45;9.90;;;7.50;;
611;SDS011;293;53.888;11.464;2023-02-24T13:57:37;10.00;;;7.10;;
611;SDS011;293;53.888;11.464;2023-02-24T14:00:17;7.80;;;6.77;;
611;SDS011;293;53.888;11.464;2023-02-24T14:02:53;34.57;;;29.70;;
611;SDS011;293;53.888;11.464;2023-02-24T14:05:21;56.43;;;27.10;;
611;SDS011;293;53.888;11.464;2023-02-24T14:07:51;17.63;;;11.17;;
611;SDS011;293;53.888;11.464;2023-02-24T14:10:21;10.13;;;7.30;;
611;SDS011;293;53.888;11.464;2023-02-24T14:12:50;7.17;;;5.57;;
611;SDS011;293;53.888;11.464;2023-02-24T14:15:28;9.93;;;6.80;;
611;SDS011;293;53.888;11.464;2023-02-24T14:17:56;10.17;;;6.60;;
611;SDS011;293;53.888;11.464;2023-02-24T14:20:25;13.43;;;5.93;;
611;SDS011;293;53.888;11.464;2023-02-24T14:22:54;16.60;;;6.57;;
611;SDS011;293;53.888;11.464;2023-02-24T14:25:25;10.10;;;6.37;;
611;SDS011;293;53.888;11.464;2023-02-24T14:27:54;13.83;;;7.67;;
611;SDS011;293;53.888;11.464;2023-02-24T14:30:23;8.40;;;5.93;;
611;SDS011;293;53.888;11.464;2023-02-24T14:32:52;8.67;;;6.40;;
611;SDS011;293;53.888;11.464;2023-02-24T14:35:23;7.13;;;6.37;;
611;SDS011;293;53.888;11.464;2023-02-24T14:37:53;15.87;;;7.63;;
611;SDS011;293;53.888;11.464;2023-02-24T14:40:21;17.27;;;10.63;;
611;SDS011;293;53.888;11.464;2023-02-24T14:42:51;8.50;;;6.43;;
611;SDS011;293;53.888;11.464;2023-02-24T14:45:20;14.60;;;7.20;;
611;SDS011;293;53.888;11.464;2023-02-24T14:47:49;10.13;;;6.87;;
611;SDS011;293;53.888;11.464;2023-02-24T14:50:17;11.80;;;7.10;;
611;SDS011;293;53.888;11.464;2023-02-24T14:52:46;14.30;;;6.43;;
611;SDS011;293;53.888;11.464;2023-02-24T14:55:16;8.23;;;6.63;;
611;SDS011;293;53.888;11.464;2023-02-24T14:57:47;11.70;;;6.93;;
611;SDS011;293;53.888;11.464;2023-02-24T15:00:22;13.60;;;9.23;;
611;SDS011;293;53.888;11.464;2023-02-24T15:02:53;12.60;;;7.83;;
611;SDS011;293;53.888;11.464;2023-02-24T15:05:26;10.18;;;7.93;;
611;SDS011;293;53.888;11.464;2023-02-24T15:07:53;5.43;;;4.40;;
611;SDS011;293;53.888;11.464;2023-02-24T15:10:20;6.70;;;3.70;;
611;SDS011;293;53.888;11.464;2023-02-24T15:12:49;6.20;;;4.60;;
611;SDS011;293;53.888;11.464;2023-02-24T15:15:20;5.20;;;3.78;;
611;SDS011;293;53.888;11.464;2023-02-24T15:17:53;5.83;;;3.43;;
611;SDS011;293;53.888;11.464;2023-02-24T15:20:27;7.82;;;4.13;;
611;SDS011;293;53.888;11.464;2023-02-24T15:22:57;9.98;;;3.78;;
611;SDS011;293;53.888;11.464;2023-02-24T15:25:25;5.00;;;2.87;;
611;SDS011;293;53.888;11.464;2023-02-24T15:27:56;5.55;;;3.03;;
611;SDS011;293;53.888;11.464;2023-02-24T15:30:25;15.07;;;3.47;;
611;SDS011;293;53.888;11.464;2023-02-24T15:33:00;10.63;;;2.30;;
611;SDS011;293;53.888;11.464;2023-02-24T15:35:30;6.10;;;2.70;;
611;SDS011;293;53.888;11.464;2023-02-24T15:37:58;8.87;;;1.73;;
611;SDS011;293;53.888;11.464;2023-02-24T15:40:26;16.57;;;10.53;;
611;SDS011;293;53.888;11.464;2023-02-24T15:42:56;10.20;;;5.87;;
611;SDS011;293;53.888;11.464;2023-02-24T15:45:28;11.80;;;3.43;;
611;SDS011;293;53.888;11.464;2023-02-24T15:47:58;5.97;;;3.53;;
611;SDS011;293;53.888;11.464;2023-02-24T15:50:26;6.60;;;2.63;;
611;SDS011;293;53.888;11.464;2023-02-24T15:52:56;5.80;;;2.80;;
611;SDS011;293;53.888;11.464;2023-02-24T15:55:25;5.70;;;2.30;;
611;SDS011;293;53.888;11.464;2023-02-24T15:57:58;5.60;;;2.77;;
611;SDS011;293;53.888;11.464;2023-02-24T16:00:28;7.30;;;3.57;;
611;SDS011;293;53.888;11.464;2023-02-24T16:02:56;6.20;;;2.80;;
611;SDS011;293;53.888;11.464;2023-02-24T16:05:23;4.57;;;2.53;;
611;SDS011;293;53.888;11.464;2023-02-24T16:07:50;3.60;;;2.73;;